Time;durP1;ratioP1;P1;durP2;ratioP2;P2;SDS_P1;SDS_P2;PMS_P1;PMS_P2;Temp;Humidity;BMP_temperature;BMP_pressure;BME280_temperature;BME280_humidity;BME280_pressure;Samples;Min_cycle;Max_cycle;Signal;HPM_P1;HPM_P2
2022/08/21 00:02:15;;;;;;;10.30;7.60;;;;;;;18.12;86.29;100377.59;5023168;28;20578;-70
2022/08/21 00:04:42;;;;;;;9.85;7.25;;;;;;;18.09;86.16;100385.13;5024156;28;20191;-70
2022/08/21 00:07:08;;;;;;;9.02;6.95;;;;;;;17.96;88.10;100373.47;5021944;28;20212;-71
2022/08/21 00:09:35;;;;;;;11.10;8.13;;;;;;;17.89;87.22;100376.66;5018484;28;20190;-72
2022/08/21 00:12:04;;;;;;;12.43;7.55;;;;;;;17.87;89.68;100366.88;5019788;28;20195;-71
2022/08/21 00:14:31;;;;;;;8.85;7.22;;;;;;;17.99;89.87;100370.50;5016174;28;20294;-71
2022/08/21 00:16:58;;;;;;;9.20;7.65;;;;;;;18.07;87.33;100365.34;5015217;28;20229;-72
2022/08/21 00:19:24;;;;;;;8.50;7.63;;;;;;;17.98;86.61;100364.19;5025645;28;20234;-72
2022/08/21 00:21:52;;;;;;;9.98;7.43;;;;;;;17.89;87.06;100360.31;5017911;28;20226;-71
2022/08/21 00:24:19;;;;;;;7.70;6.90;;;;;;;17.84;88.53;100356.19;5015930;28;20568;-70
2022/08/21 00:26:47;;;;;;;13.32;8.55;;;;;;;17.89;88.88;100352.13;5022697;28;20205;-71
2022/08/21 00:29:15;;;;;;;9.48;6.80;;;;;;;17.84;89.11;100356.19;5021663;28;20218;-71
2022/08/21 00:31:43;;;;;;;13.35;8.68;;;;;;;17.66;90.71;100353.88;5024865;28;20578;-72
2022/08/21 00:34:11;;;;;;;8.60;7.70;;;;;;;17.56;90.93;100352.81;5030212;28;20232;-71
2022/08/21 00:36:38;;;;;;;8.27;7.47;;;;;;;17.57;90.55;100357.28;5033912;28;20240;-71
2022/08/21 00:39:06;;;;;;;14.77;8.27;;;;;;;17.55;91.72;100351.09;5033602;28;20377;-71
2022/08/21 00:41:34;;;;;;;13.57;8.10;;;;;;;17.33;95.27;100359.97;5022423;28;20215;-71
2022/08/21 00:44:00;;;;;;;9.45;8.20;;;;;;;17.38;94.98;100357.78;5029314;28;20198;-71
2022/08/21 00:46:28;;;;;;;13.75;8.68;;;;;;;17.35;95.11;100349.84;5024046;28;20206;-70
2022/08/21 00:48:55;;;;;;;10.65;8.52;;;;;;;17.34;94.93;100356.25;5021112;28;20223;-72
2022/08/21 00:51:29;;;;;;;12.85;9.55;;;;;;;16.87;99.71;100358.78;5031459;28;20551;-70
2022/08/21 00:53:58;;;;;;;9.63;7.60;;;;;;;17.01;98.48;100360.50;5030954;28;20757;-71
2022/08/21 00:56:26;;;;;;;12.05;7.88;;;;;;;17.08;97.99;100360.91;5023375;28;20675;-71
2022/08/21 00:58:54;;;;;;;8.75;7.80;;;;;;;16.86;100.00;100364.31;5021987;28;20794;-71
2022/08/21 01:01:21;;;;;;;10.73;8.48;;;;;;;16.88;99.23;100365.94;5020002;28;20203;-70
2022/08/21 01:03:50;;;;;;;10.07;8.98;;;;;;;16.78;99.77;100364.84;5023356;28;20222;-68
2022/08/21 01:06:17;;;;;;;9.82;8.02;;;;;;;16.86;98.79;100364.31;5020926;28;20201;-70
2022/08/21 01:08:44;;;;;;;8.75;7.60;;;;;;;16.93;98.59;100364.75;5024317;28;20817;-71
2022/08/21 01:11:11;;;;;;;9.48;8.45;;;;;;;16.89;99.21;100361.38;5025883;28;20228;-72
2022/08/21 01:13:44;;;;;;;8.40;7.43;;;;;;;16.93;98.49;100362.03;5029014;28;20586;-69
2022/08/21 01:16:11;;;;;;;8.60;7.70;;;;;;;16.90;97.82;100368.56;5012976;28;20205;-72
2022/08/21 01:18:37;;;;;;;8.88;7.30;;;;;;;16.90;98.41;100371.28;5021088;28;20242;-71
2022/08/21 01:21:08;;;;;;;9.52;7.57;;;;;;;16.79;100.00;100365.72;5016222;28;20691;-72
2022/08/21 01:23:37;;;;;;;11.88;7.97;;;;;;;16.74;100.00;100370.63;5013721;28;20226;-72
2022/08/21 01:26:04;;;;;;;10.52;8.02;;;;;;;16.77;100.00;100368.53;5020758;28;20543;-70
2022/08/21 01:28:34;;;;;;;13.07;8.75;;;;;;;16.78;100.00;100358.53;5012811;28;20316;-71
2022/08/21 01:31:04;;;;;;;10.80;8.00;;;;;;;16.55;100.00;100371.03;5018282;28;20205;-71
2022/08/21 01:33:30;;;;;;;12.18;8.30;;;;;;;16.55;100.00;100368.31;5023330;28;20194;-70
2022/08/21 01:35:57;;;;;;;11.05;8.38;;;;;;;16.60;100.00;100368.91;5026582;28;20193;-71
2022/08/21 01:38:26;;;;;;;13.38;8.40;;;;;;;16.60;100.00;100368.91;5021225;28;20222;-71
2022/08/21 01:40:52;;;;;;;14.00;8.45;;;;;;;16.44;100.00;100372.69;5013451;28;20198;-71
2022/08/21 01:43:19;;;;;;;9.43;7.88;;;;;;;16.36;100.00;100361.47;5020315;28;20222;-72
2022/08/21 01:45:45;;;;;;;12.35;8.77;;;;;;;16.33;100.00;100364.41;5012719;28;20684;-71
2022/08/21 01:48:12;;;;;;;10.68;9.10;;;;;;;16.38;100.00;100364.09;5012324;28;20708;-71
2022/08/21 01:50:39;;;;;;;9.60;7.97;;;;;;;16.40;100.00;100362.13;5023143;28;20198;-70
2022/08/21 01:53:05;;;;;;;13.13;8.50;;;;;;;16.28;100.00;100363.88;5024563;28;20578;-70
2022/08/21 01:55:34;;;;;;;12.07;8.00;;;;;;;16.27;100.00;100354.84;5031851;28;20202;-69
2022/08/21 01:58:00;;;;;;;12.10;8.70;;;;;;;16.27;100.00;100356.69;5031103;28;20226;-71
2022/08/21 02:00:27;;;;;;;10.68;8.10;;;;;;;16.24;100.00;100354.19;5022690;28;20213;-71
2022/08/21 02:02:54;;;;;;;11.05;8.63;;;;;;;16.23;100.00;100356.03;5017698;28;20222;-69
2022/08/21 02:05:21;;;;;;;10.20;8.30;;;;;;;16.03;100.00;100360.16;5012199;28;20199;-70
2022/08/21 02:07:51;;;;;;;10.80;9.40;;;;;;;15.96;100.00;100360.66;5016581;28;20305;-72
2022/08/21 02:10:22;;;;;;;11.07;9.18;;;;;;;16.14;100.00;100355.78;5021357;28;20202;-71
2022/08/21 02:12:50;;;;;;;10.95;9.48;;;;;;;16.00;100.00;100351.31;5011266;28;20198;-72
2022/08/21 02:15:17;;;;;;;10.30;8.75;;;;;;;16.10;100.00;100355.16;5020088;28;20268;-70
2022/08/21 02:17:46;;;;;;;9.13;8.23;;;;;;;16.21;100.00;100348.94;5018274;28;20234;-69
2022/08/21 02:20:17;;;;;;;10.60;8.55;;;;;;;15.87;100.00;100347.69;5020570;28;20202;-71
2022/08/21 02:22:44;;;;;;;9.85;8.30;;;;;;;15.85;100.00;100345.09;5026118;28;20207;-72
2022/08/21 02:25:11;;;;;;;12.77;9.50;;;;;;;15.92;100.00;100343.72;5015420;28;20210;-71
2022/08/21 02:27:41;;;;;;;11.93;8.25;;;;;;;15.96;100.00;100347.06;5034796;28;20283;-70
2022/08/21 02:30:13;;;;;;;12.73;9.63;;;;;;;16.00;100.00;100341.31;5032888;28;20194;-71
2022/08/21 02:32:40;;;;;;;9.32;7.82;;;;;;;16.05;100.00;100349.16;5024463;28;20671;-72
2022/08/21 02:35:08;;;;;;;15.02;9.55;;;;;;;16.01;100.00;100348.50;5016335;28;20199;-70
2022/08/21 02:37:34;;;;;;;10.38;8.00;;;;;;;15.99;100.00;100347.75;5030289;28;20255;-71
2022/08/21 02:40:01;;;;;;;14.13;8.70;;;;;;;15.83;100.00;100349.78;5046866;28;20202;-73
2022/08/21 02:42:28;;;;;;;10.82;8.82;;;;;;;15.88;100.00;100347.59;5036608;28;20221;-71
2022/08/21 02:44:55;;;;;;;13.48;8.38;;;;;;;15.83;100.00;100347.06;5027749;28;20209;-70
2022/08/21 02:47:23;;;;;;;11.55;9.40;;;;;;;15.70;100.00;100352.41;5025076;28;20236;-70
2022/08/21 02:49:49;;;;;;;12.68;9.10;;;;;;;15.69;100.00;100347.06;5025225;28;20284;-70
2022/08/21 02:52:16;;;;;;;13.52;9.80;;;;;;;15.56;100.00;100339.78;5039125;28;20211;-71
2022/08/21 02:54:42;;;;;;;11.57;9.60;;;;;;;15.57;100.00;100338.78;5024275;28;20201;-72
2022/08/21 02:57:09;;;;;;;12.55;9.55;;;;;;;15.42;100.00;100342.50;5028853;28;20209;-70
2022/08/21 02:59:35;;;;;;;14.85;10.00;;;;;;;15.45;100.00;100344.19;5028234;28;20661;-69
2022/08/21 03:02:02;;;;;;;14.15;10.13;;;;;;;15.52;100.00;100340.94;5016968;28;20797;-70
2022/08/21 03:04:30;;;;;;;11.52;9.10;;;;;;;15.60;100.00;100337.69;5022862;28;20774;-71
2022/08/21 03:06:56;;;;;;;11.80;9.68;;;;;;;15.61;100.00;100343.03;5016879;28;20531;-71
2022/08/21 03:09:23;;;;;;;9.68;8.68;;;;;;;15.61;100.00;100340.31;5022881;28;20214;-70
2022/08/21 03:11:51;;;;;;;12.20;9.00;;;;;;;15.69;100.00;100336.22;5027855;28;20228;-71
2022/08/21 03:14:17;;;;;;;10.23;8.98;;;;;;;15.63;100.00;100337.50;5025173;28;20203;-71
2022/08/21 03:16:44;;;;;;;10.93;9.13;;;;;;;15.58;100.00;100336.94;5023402;28;20587;-71
2022/08/21 03:19:11;;;;;;;10.75;8.25;;;;;;;15.56;100.00;100337.06;5021575;28;20357;-71
2022/08/21 03:21:39;;;;;;;11.13;8.50;;;;;;;15.52;100.00;100330.09;5027214;28;20267;-73
2022/08/21 03:24:06;;;;;;;9.75;8.75;;;;;;;15.42;100.00;100337.09;5029149;28;20226;-71
2022/08/21 03:26:33;;;;;;;13.40;9.10;;;;;;;15.37;100.00;100342.81;5026141;28;20336;-71
2022/08/21 03:28:59;;;;;;;14.35;9.23;;;;;;;15.39;100.00;100338.16;5034623;28;20222;-72
2022/08/21 03:31:28;;;;;;;10.23;9.02;;;;;;;15.33;100.00;100343.13;5032261;28;20202;-72
2022/08/21 03:33:56;;;;;;;13.13;9.02;;;;;;;15.35;100.00;100347.50;5023009;28;20225;-70
2022/08/21 03:36:22;;;;;;;14.27;9.40;;;;;;;15.20;100.00;100345.78;5025385;28;20293;-70
2022/08/21 03:38:51;;;;;;;12.80;9.38;;;;;;;15.19;100.00;100347.63;5026343;28;20229;-71
2022/08/21 03:41:17;;;;;;;11.18;8.55;;;;;;;15.22;100.00;100352.00;5030477;28;20209;-71
2022/08/21 03:43:44;;;;;;;10.15;9.20;;;;;;;14.98;100.00;100354.44;5028081;28;20847;-71
2022/08/21 03:46:11;;;;;;;11.07;9.70;;;;;;;14.92;100.00;100358.41;5024548;28;20212;-71
2022/08/21 03:48:38;;;;;;;13.43;10.38;;;;;;;14.93;100.00;100354.75;5015097;28;20224;-72
2022/08/21 03:51:06;;;;;;;12.48;10.00;;;;;;;14.87;100.00;100354.25;5015124;28;20204;-70
2022/08/21 03:53:33;;;;;;;13.80;10.65;;;;;;;14.85;100.00;100362.50;5015100;28;20213;-71
2022/08/21 03:56:01;;;;;;;12.27;10.38;;;;;;;14.95;100.00;100358.22;5014675;28;20206;-71
2022/08/21 03:58:29;;;;;;;14.02;10.65;;;;;;;15.08;100.00;100355.63;5023577;28;20232;-70
2022/08/21 04:00:59;;;;;;;12.20;10.23;;;;;;;15.05;100.00;100357.63;5022673;28;20701;-70
2022/08/21 04:03:27;;;;;;;11.45;10.25;;;;;;;15.01;100.00;100365.97;5031107;28;20224;-71
2022/08/21 04:05:54;;;;;;;15.35;10.90;;;;;;;15.01;100.00;100374.13;5042793;28;20201;-71
2022/08/21 04:08:21;;;;;;;13.88;10.95;;;;;;;14.94;100.00;100378.16;5032792;28;20228;-71
2022/08/21 04:10:50;;;;;;;12.25;10.90;;;;;;;15.02;100.00;100375.84;5029329;28;20656;-71
2022/08/21 04:13:18;;;;;;;15.00;10.07;;;;;;;14.95;100.00;100373.63;5027703;28;20634;-70
2022/08/21 04:15:45;;;;;;;13.13;10.10;;;;;;;14.94;100.00;100382.72;5027685;28;20225;-72
2022/08/21 04:18:12;;;;;;;12.65;9.40;;;;;;;14.96;100.00;100383.50;5034042;28;20350;-72
2022/08/21 04:20:39;;;;;;;13.40;10.50;;;;;;;14.95;100.00;100382.63;5033943;28;20300;-71
2022/08/21 04:23:07;;;;;;;14.48;10.40;;;;;;;14.91;100.00;100382.94;5034338;28;20224;-70
2022/08/21 04:25:33;;;;;;;12.05;10.50;;;;;;;14.74;100.00;100387.59;5033238;28;20204;-69
2022/08/21 04:28:01;;;;;;;13.07;10.50;;;;;;;14.82;100.00;100387.09;5017674;28;20225;-70
2022/08/21 04:30:29;;;;;;;16.17;11.23;;;;;;;14.82;100.00;100395.22;5023500;28;20201;-71
2022/08/21 04:32:58;;;;;;;14.43;11.55;;;;;;;14.67;100.00;100394.34;5025077;28;20205;-71
2022/08/21 04:35:27;;;;;;;13.13;10.77;;;;;;;14.73;100.00;100396.69;5025082;28;20212;-71
2022/08/21 04:37:54;;;;;;;11.13;9.50;;;;;;;14.86;100.00;100402.22;5048401;28;20221;-70
2022/08/21 04:40:22;;;;;;;14.13;10.05;;;;;;;14.98;100.00;100400.56;5046901;28;20296;-71
2022/08/21 04:42:52;;;;;;;17.42;10.60;;;;;;;15.00;100.00;100401.31;5048511;28;20225;-69
2022/08/21 04:45:21;;;;;;;12.95;9.52;;;;;;;15.12;100.00;100400.53;5043499;28;20204;-72
2022/08/21 04:47:51;;;;;;;14.68;10.88;;;;;;;15.19;100.00;100398.28;5048053;28;20216;-70
2022/08/21 04:50:18;;;;;;;16.58;11.18;;;;;;;15.08;100.00;100404.44;5033075;28;20210;-72
2022/08/21 04:52:45;;;;;;;11.65;9.95;;;;;;;15.08;100.00;100409.84;5039356;28;20263;-71
2022/08/21 04:55:12;;;;;;;14.52;10.80;;;;;;;15.00;100.00;100414.88;5028376;28;20203;-71
2022/08/21 04:57:40;;;;;;;15.05;10.13;;;;;;;15.12;100.00;100407.78;5023553;28;20311;-71
2022/08/21 05:00:09;;;;;;;14.60;10.60;;;;;;;15.31;100.00;100404.75;5023410;28;20588;-71
2022/08/21 05:02:37;;;;;;;11.18;9.35;;;;;;;15.38;100.00;100409.72;5010540;28;20252;-71
2022/08/21 05:05:06;;;;;;;12.30;10.55;;;;;;;15.51;100.00;100419.75;5027493;28;20649;-69
2022/08/21 05:07:34;;;;;;;12.25;9.30;;;;;;;15.40;100.00;100415.91;5028852;28;20762;-70
2022/08/21 05:10:02;;;;;;;10.60;9.40;;;;;;;15.42;100.00;100419.41;5032599;28;20213;-71
2022/08/21 05:12:28;;;;;;;11.60;9.93;;;;;;;15.50;100.00;100426.16;5026565;28;20204;-71
2022/08/21 05:14:55;;;;;;;11.70;9.90;;;;;;;15.45;100.00;100418.31;5033548;28;20201;-70
2022/08/21 05:17:21;;;;;;;13.98;10.40;;;;;;;15.57;100.00;100420.22;5021750;28;20227;-71
2022/08/21 05:19:48;;;;;;;12.48;9.95;;;;;;;15.56;100.00;100420.34;5017470;28;20208;-70
2022/08/21 05:22:22;;;;;;;14.35;10.20;;;;;;;15.59;100.00;100420.13;5024523;28;20215;-69
2022/08/21 05:24:48;;;;;;;11.73;8.95;;;;;;;15.64;100.00;100424.25;5023640;28;20229;-71
2022/08/21 05:27:15;;;;;;;12.45;8.88;;;;;;;15.76;100.00;100429.88;5025054;28;20289;-71
2022/08/21 05:29:41;;;;;;;11.18;9.85;;;;;;;15.77;100.00;100426.22;5032855;28;20198;-70
2022/08/21 05:32:10;;;;;;;13.15;9.60;;;;;;;15.95;100.00;100426.81;5026465;28;20201;-70
2022/08/21 05:34:37;;;;;;;12.30;9.73;;;;;;;15.94;100.00;100427.78;5008143;28;20206;-73
2022/08/21 05:37:03;;;;;;;11.98;9.60;;;;;;;16.08;100.00;100429.56;5019418;28;20524;-70
2022/08/21 05:39:32;;;;;;;12.30;9.00;;;;;;;16.11;100.00;100432.94;5022572;28;20197;-72
2022/08/21 05:41:58;;;;;;;14.57;9.85;;;;;;;16.34;100.00;100439.53;5020509;28;20208;-71
2022/08/21 05:44:25;;;;;;;11.20;9.77;;;;;;;16.31;100.00;100442.47;5031085;28;20221;-71
2022/08/21 05:46:51;;;;;;;17.60;9.25;;;;;;;16.39;100.00;100437.38;5032563;28;20576;-71
2022/08/21 05:49:18;;;;;;;13.75;9.63;;;;;;;16.47;100.00;100437.69;5022148;28;20218;-71
2022/08/21 05:51:44;;;;;;;14.88;9.65;;;;;;;16.66;100.00;100441.84;5025655;28;20872;-72
2022/08/21 05:54:11;;;;;;;12.63;9.68;;;;;;;16.64;100.00;100444.69;5030637;28;20202;-71
2022/08/21 05:56:39;;;;;;;12.70;9.40;;;;;;;16.93;100.00;100441.78;5024956;28;20304;-69
2022/08/21 05:59:05;;;;;;;12.48;9.82;;;;;;;17.16;100.00;100448.28;5032348;28;20229;-70
2022/08/21 06:01:32;;;;;;;12.02;8.25;;;;;;;17.13;100.00;100445.78;5020711;28;20198;-73
2022/08/21 06:03:58;;;;;;;10.00;8.40;;;;;;;17.27;100.00;100448.38;5020672;28;20228;-70
2022/08/21 06:06:25;;;;;;;10.75;9.18;;;;;;;17.29;100.00;100448.28;5018126;28;20203;-71
2022/08/21 06:08:52;;;;;;;12.20;9.80;;;;;;;17.56;99.86;100453.56;5021209;28;20223;-72
2022/08/21 06:11:18;;;;;;;14.13;8.63;;;;;;;17.61;99.13;100445.03;5025755;28;20202;-70
2022/08/21 06:13:46;;;;;;;8.57;7.68;;;;;;;17.86;98.06;100449.56;5020168;28;20207;-70
2022/08/21 06:16:16;;;;;;;10.05;8.60;;;;;;;18.09;94.70;100450.53;5029539;28;20212;-69
2022/08/21 06:18:44;;;;;;;10.13;8.32;;;;;;;18.16;93.54;100438.22;5031131;28;20234;-72
2022/08/21 06:21:13;;;;;;;12.80;8.40;;;;;;;18.29;93.05;100441.72;5020703;28;20209;-70
2022/08/21 06:23:40;;;;;;;8.52;7.60;;;;;;;18.52;91.97;100448.13;5024000;28;20218;-71
2022/08/21 06:26:08;;;;;;;11.52;8.82;;;;;;;18.81;90.02;100453.16;5023526;28;20697;-73
2022/08/21 06:28:35;;;;;;;10.63;7.75;;;;;;;18.99;87.47;100445.38;5017047;28;20215;-70
2022/08/21 06:31:11;;;;;;;10.52;7.95;;;;;;;19.07;86.39;100456.56;5027471;28;20198;-70
2022/08/21 06:33:38;;;;;;;10.73;8.32;;;;;;;19.10;86.45;100452.72;5032327;28;20186;-72
2022/08/21 06:36:04;;;;;;;11.90;8.27;;;;;;;19.10;85.92;100452.72;5027239;28;20261;-71
2022/08/21 06:38:31;;;;;;;10.07;8.90;;;;;;;19.26;85.65;100449.63;5022231;28;20300;-73
2022/08/21 06:40:58;;;;;;;11.23;8.30;;;;;;;19.59;83.98;100441.38;5024153;28;20440;-70
2022/08/21 06:43:24;;;;;;;13.40;8.60;;;;;;;19.96;81.41;100448.41;5034918;28;20440;-72
2022/08/21 06:45:51;;;;;;;12.97;7.70;;;;;;;20.11;79.99;100443.53;5037514;28;20440;-73
2022/08/21 06:48:19;;;;;;;11.57;8.93;;;;;;;20.17;79.22;100441.16;5031036;28;20469;-72
2022/08/21 06:50:46;;;;;;;14.13;9.10;;;;;;;20.25;78.06;100435.00;5033299;28;20481;-72
2022/08/21 06:53:15;;;;;;;10.73;8.20;;;;;;;20.53;77.80;100446.31;5036949;28;20954;-70
2022/08/21 06:55:42;;;;;;;11.30;9.50;;;;;;;20.79;75.90;100444.09;5023336;28;20458;-70
2022/08/21 06:58:10;;;;;;;13.50;11.00;;;;;;;21.07;74.59;100445.25;5027926;28;20514;-71
2022/08/21 07:00:40;;;;;;;11.17;9.10;;;;;;;21.22;73.94;100443.88;5035449;28;20471;-70
2022/08/21 07:03:06;;;;;;;11.30;7.50;;;;;;;21.51;73.10;100442.31;5028028;28;20459;-75
2022/08/21 07:05:34;;;;;;;12.57;8.57;;;;;;;21.75;71.62;100439.19;5018122;28;20488;-70
2022/08/21 07:08:01;;;;;;;9.00;8.07;;;;;;;21.84;70.51;100431.00;5023779;28;20527;-71
2022/08/21 07:10:28;;;;;;;11.60;7.80;;;;;;;21.92;69.76;100438.50;5016016;28;20437;-71
2022/08/21 07:12:55;;;;;;;8.00;7.20;;;;;;;21.77;70.48;100437.16;5019560;28;20452;-71
2022/08/21 07:15:22;;;;;;;8.27;7.30;;;;;;;22.01;69.41;100434.03;5019877;28;20511;-72
2022/08/21 07:17:48;;;;;;;11.33;7.63;;;;;;;22.17;69.06;100438.97;5024651;28;20484;-70
2022/08/21 07:20:15;;;;;;;10.27;7.13;;;;;;;22.23;67.74;100428.31;5024571;28;20455;-72
2022/08/21 07:22:43;;;;;;;9.20;7.57;;;;;;;22.47;67.72;100437.97;5033790;28;20483;-71
2022/08/21 07:25:10;;;;;;;7.73;6.93;;;;;;;22.50;67.63;100440.44;5022024;28;20485;-72
2022/08/21 07:27:37;;;;;;;10.43;7.43;;;;;;;22.80;66.65;100433.88;5014635;28;20581;-70
2022/08/21 07:30:04;;;;;;;10.67;7.13;;;;;;;23.24;64.76;100433.34;5022803;28;20432;-72
2022/08/21 07:32:30;;;;;;;13.70;7.30;;;;;;;23.61;62.97;100432.47;5028994;28;20467;-72
2022/08/21 07:34:57;;;;;;;8.60;6.20;;;;;;;24.11;60.33;100434.75;5023519;28;20433;-73
2022/08/21 07:37:24;;;;;;;10.77;6.30;;;;;;;24.50;59.26;100435.31;5015488;28;20465;-70
2022/08/21 07:39:52;;;;;;;9.57;6.40;;;;;;;25.37;56.15;100436.28;5019598;28;20456;-71
2022/08/21 07:42:18;;;;;;;7.07;5.80;;;;;;;26.01;52.88;100427.56;5023165;28;20457;-71
2022/08/21 07:44:45;;;;;;;8.57;6.43;;;;;;;26.51;51.84;100426.56;5020711;28;20972;-69
2022/08/21 07:47:12;;;;;;;7.80;6.30;;;;;;;27.03;49.97;100422.56;5029970;28;20836;-72
2022/08/21 07:49:38;;;;;;;9.30;5.70;;;;;;;27.47;48.18;100419.34;5025770;28;20543;-74
2022/08/21 07:52:05;;;;;;;6.83;5.80;;;;;;;27.47;48.24;100418.47;5022679;28;20462;-71
2022/08/21 07:54:31;;;;;;;10.00;5.93;;;;;;;27.99;47.40;100418.75;5034402;28;20524;-71
2022/08/21 07:56:59;;;;;;;6.90;6.30;;;;;;;29.05;44.82;100418.94;5033261;28;20471;-70
2022/08/21 07:59:26;;;;;;;8.50;5.90;;;;;;;29.79;43.12;100426.41;5034237;28;20834;-71
2022/08/21 08:01:52;;;;;;;8.17;5.63;;;;;;;30.69;41.34;100414.78;5022797;28;20893;-72
2022/08/21 08:04:19;;;;;;;8.40;5.30;;;;;;;31.26;39.91;100415.63;5017373;28;20854;-72
2022/08/21 08:06:45;;;;;;;6.97;5.70;;;;;;;31.49;39.24;100418.16;5026162;28;20461;-72
2022/08/21 08:09:12;;;;;;;6.33;5.30;;;;;;;32.11;38.23;100413.50;5031051;28;20465;-73
2022/08/21 08:11:42;;;;;;;7.90;5.37;;;;;;;32.76;36.86;100408.22;5026438;28;20458;-73
2022/08/21 08:14:11;;;;;;;6.40;4.80;;;;;;;33.03;36.62;100416.56;5022432;28;20453;-73
2022/08/21 08:16:37;;;;;;;8.80;5.73;;;;;;;32.88;36.67;100416.81;5012828;28;20457;-70
2022/08/21 08:19:04;;;;;;;18.67;16.93;;;;;;;32.45;37.37;100419.09;5013759;28;20998;-72
2022/08/21 08:21:32;;;;;;;72.83;65.87;;;;;;;32.73;37.09;100410.59;5034157;28;20450;-73
2022/08/21 08:23:58;;;;;;;38.87;35.07;;;;;;;32.89;37.20;100415.72;5022818;28;20927;-76
2022/08/21 08:26:25;;;;;;;18.90;17.10;;;;;;;33.97;35.39;100420.81;5014536;28;20829;-75
2022/08/21 08:28:51;;;;;;;14.60;13.10;;;;;;;34.97;33.94;100406.13;5013200;28;20463;-73
2022/08/21 08:31:19;;;;;;;10.83;9.73;;;;;;;35.60;32.96;100407.00;5015135;28;20437;-71
2022/08/21 08:33:46;;;;;;;8.43;7.60;;;;;;;36.02;31.89;100405.13;5014950;28;20438;-74
2022/08/21 08:36:15;;;;;;;7.63;6.83;;;;;;;35.86;32.45;100415.06;5014358;28;20437;-73
2022/08/21 08:38:41;;;;;;;8.50;7.50;;;;;;;34.30;33.58;100407.75;5013996;28;20469;-74
2022/08/21 08:41:13;;;;;;;10.00;7.97;;;;;;;33.22;35.38;100401.75;5013852;28;20532;-72
2022/08/21 08:43:43;;;;;;;8.63;7.10;;;;;;;34.98;33.53;100393.00;5014592;28;20438;-74
2022/08/21 08:46:14;;;;;;;7.90;7.20;;;;;;;35.33;32.51;100386.84;5014303;28;20488;-73
2022/08/21 08:48:50;;;;;;;7.73;6.60;;;;;;;33.26;34.39;100384.56;5014120;28;20461;-73
2022/08/21 08:51:22;;;;;;;11.70;6.73;;;;;;;30.46;38.81;100381.66;5013612;28;20437;-72
2022/08/21 08:53:53;;;;;;;8.13;6.30;;;;;;;28.47;42.57;100377.94;5014617;28;20884;-71
2022/08/21 08:56:29;;;;;;;8.27;6.60;;;;;;;27.61;45.10;100382.66;5013871;28;20469;-72
2022/08/21 08:58:59;;;;;;;8.07;7.27;;;;;;;30.27;40.54;100368.44;5013924;28;20835;-71
2022/08/21 09:01:26;;;;;;;6.97;6.23;;;;;;;32.63;36.49;100374.75;5012688;28;20462;-72
2022/08/21 09:03:54;;;;;;;6.50;5.67;;;;;;;35.26;32.27;100379.38;5015095;28;20869;-74
2022/08/21 09:06:35;;;;;;;7.60;5.40;;;;;;;37.80;29.25;100384.56;5023358;28;20853;-71
2022/08/21 09:09:12;;;;;;;7.93;4.67;;;;;;;40.00;26.54;100382.47;5021025;28;20993;-72
2022/08/21 09:11:49;;;;;;;5.60;5.10;;;;;;;40.52;25.06;100382.97;5027948;28;20457;-71
2022/08/21 09:14:22;;;;;;;5.83;4.80;;;;;;;39.67;26.20;100379.81;5035021;28;20460;-71
2022/08/21 09:16:56;;;;;;;6.53;5.93;;;;;;;39.36;26.10;100376.56;5028346;28;20460;-73
2022/08/21 09:19:37;;;;;;;7.67;5.17;;;;;;;38.11;27.73;100376.75;5017800;28;20864;-72
2022/08/21 09:22:10;;;;;;;6.13;4.80;;;;;;;35.58;30.54;100368.00;5020032;28;20457;-75
2022/08/21 09:24:47;;;;;;;6.00;4.67;;;;;;;34.38;32.12;100362.75;5013416;28;20481;-72
2022/08/21 09:27:15;;;;;;;6.70;5.20;;;;;;;33.39;33.71;100354.66;5012944;28;20485;-70
2022/08/21 09:29:44;;;;;;;7.67;5.50;;;;;;;32.40;35.49;100364.88;5013086;28;20525;-69
2022/08/21 09:32:16;;;;;;;9.93;5.30;;;;;;;31.72;36.08;100361.28;5013149;28;20477;-71
2022/08/21 09:34:57;;;;;;;68.00;61.37;;;;;;;31.11;36.95;100362.06;5013737;28;20529;-73
2022/08/21 09:37:24;;;;;;;19.27;16.30;;;;;;;31.64;35.57;100361.50;5013293;28;20921;-72
2022/08/21 09:39:51;;;;;;;14.40;11.47;;;;;;;34.61;31.32;100362.13;5012960;28;20443;-72
2022/08/21 09:42:23;;;;;;;14.43;11.63;;;;;;;36.33;29.15;100362.00;5013195;28;20446;-71
2022/08/21 09:45:07;;;;;;;9.30;7.37;;;;;;;37.91;26.78;100366.78;5013392;28;20826;-71
2022/08/21 09:47:33;;;;;;;8.03;6.30;;;;;;;38.13;26.28;100368.94;5013181;28;20458;-71
2022/08/21 09:50:14;;;;;;;10.20;9.17;;;;;;;40.56;24.58;100373.72;5013061;28;20455;-71
2022/08/21 09:52:47;;;;;;;7.80;6.10;;;;;;;41.89;21.96;100365.19;5013310;28;20842;-71
2022/08/21 09:58:08;;;;;;;5.87;3.90;;;;;;;42.57;21.65;100367.88;5018454;28;20550;-71
2022/08/21 10:00:36;;;;;;;5.63;4.80;;;;;;;42.97;21.66;100369.00;5009542;28;20452;-71
2022/08/21 10:03:15;;;;;;;5.30;4.53;;;;;;;38.99;23.98;100358.31;5024671;28;20432;-71
2022/08/21 10:05:52;;;;;;;7.93;5.50;;;;;;;37.76;25.74;100363.66;5016921;28;20469;-72
2022/08/21 10:08:20;;;;;;;6.00;4.37;;;;;;;35.34;28.11;100347.41;5005477;28;20477;-72
2022/08/21 10:10:52;;;;;;;9.60;5.27;;;;;;;35.53;28.00;100353.00;5023693;28;20437;-71
2022/08/21 10:13:27;;;;;;;5.23;4.63;;;;;;;38.52;25.55;100347.41;5032258;28;20507;-71
2022/08/21 10:16:07;;;;;;;7.07;5.07;;;;;;;40.89;23.45;100353.94;5026734;28;20452;-72
2022/08/21 10:18:40;;;;;;;6.67;4.70;;;;;;;42.32;22.07;100348.03;5045232;23;20488;-72
2022/08/21 10:21:18;;;;;;;6.53;4.67;;;;;;;43.78;20.88;100340.66;5039380;28;20837;-73
2022/08/21 10:23:57;;;;;;;6.40;3.10;;;;;;;42.70;20.47;100343.81;5047357;28;20961;-72
2022/08/21 10:26:38;;;;;;;4.23;3.10;;;;;;;40.80;21.96;100329.06;5054095;28;20478;-70
2022/08/21 10:29:16;;;;;;;6.90;4.07;;;;;;;38.18;25.08;100329.66;5050508;28;20478;-71
2022/08/21 10:31:52;;;;;;;4.73;3.60;;;;;;;35.14;27.86;100319.66;5047866;28;20431;-73
2022/08/21 10:34:32;;;;;;;5.43;3.70;;;;;;;36.12;26.99;100314.94;5057283;28;20828;-71
2022/08/21 10:37:14;;;;;;;6.60;3.67;;;;;;;37.29;25.97;100318.84;5059547;28;20444;-72
2022/08/21 10:39:51;;;;;;;5.10;3.40;;;;;;;34.76;28.14;100317.06;5057010;28;20777;-69
2022/08/21 10:42:28;;;;;;;7.10;4.13;;;;;;;34.81;28.60;100315.28;5051832;28;20456;-71
2022/08/21 10:45:14;;;;;;;5.40;4.10;;;;;;;38.20;25.61;100307.75;5053911;28;20439;-72
2022/08/21 10:47:46;;;;;;;7.63;3.80;;;;;;;39.10;24.68;100317.09;5053479;28;20508;-71
2022/08/21 10:50:25;;;;;;;8.67;4.00;;;;;;;40.85;22.93;100314.97;5052537;28;20558;-72
2022/08/21 10:53:13;;;;;;;4.63;3.67;;;;;;;39.61;24.02;100311.25;5048870;28;20428;-71
2022/08/21 10:55:44;;;;;;;6.63;3.90;;;;;;;36.97;26.29;100315.59;5059062;28;20496;-72
2022/08/21 10:58:15;;;;;;;5.70;4.30;;;;;;;35.52;28.24;100310.13;5055793;28;20518;-73
2022/08/21 11:00:46;;;;;;;4.50;3.50;;;;;;;33.31;30.17;100307.50;5054811;28;20695;-75
2022/08/21 11:03:18;;;;;;;5.03;3.73;;;;;;;32.12;32.04;100301.00;5053956;28;20837;-73
2022/08/21 11:05:49;;;;;;;8.50;4.43;;;;;;;31.05;33.86;100294.22;5047777;28;20471;-73
2022/08/21 11:08:31;;;;;;;5.30;4.40;;;;;;;34.22;29.83;100295.16;5053468;28;20451;-70
2022/08/21 11:11:03;;;;;;;8.00;5.73;;;;;;;32.65;31.22;100293.69;5053137;28;20518;-71
2022/08/21 11:13:38;;;;;;;9.43;6.10;;;;;;;31.89;32.68;100284.66;5054323;28;20979;-74
2022/08/21 11:16:11;;;;;;;6.00;4.83;;;;;;;32.35;32.76;100283.00;5070818;28;20477;-71
2022/08/21 11:18:42;;;;;;;4.33;3.53;;;;;;;35.03;28.53;100284.91;5064636;28;20486;-76
2022/08/21 11:21:30;;;;;;;6.20;4.50;;;;;;;38.35;25.13;100284.63;5071547;28;20424;-77
2022/08/21 11:24:04;;;;;;;6.13;4.20;;;;;;;40.95;22.65;100299.19;5070344;28;20459;-77
2022/08/21 11:26:35;;;;;;;4.43;3.30;;;;;;;41.95;21.66;100301.00;5056718;28;21063;-77
2022/08/21 11:29:09;;;;;;;5.63;3.67;;;;;;;40.13;22.87;100290.94;5057162;28;20459;-77